Aérodrome :
LOGIN :

S'inscrire | Disclaimer

   EN    FR    IT 

 










Légende :    VFR   VFR Marginal   IFR   IFR Intensif   IFR Très Intensif
Visi : 
Plafond : 
>= 8 km
>= 3000ft
5 à 8 km
1000 à 3000 ft
1500m à 5 km
500 à 1000 ft
800 à 1500m
200 à 500 ft
< 800m
< 200 ft
Symboles :   Orages  Brouillard  Fortes neiges  Fortes précipitations  Vent > 20 kt
SIGMETs :   Divers  Orages  Givrage  Turbulence  Onde Orograph.  Cendres Volcan.







- Altitude de l'aérodrome : 768 ft
- Code IATA : MXP


LIMC - Milano Malpensa

DERNIER METAR :
  • 271250Z 13011KT 6000 RA VCSH SCT006 BKN012 15/13 Q1010 NOSIG

METARs EXPIRÉS :
  • 271220Z 14013KT 3000 RA VCSH BR SCT004 OVC010 15/14 Q1011 NOSIG
  • 271050Z 25005KT 210V270 8000 -RA BKN020 17/15 Q1011 NOSIG
  • 271020Z 21004KT 190V260 8000 -DZ BKN010 17/15 Q1011 REDZ NOSIG

TAF TAF LIMC
Valide du 27 à 12h jusqu'au 28 à 18h UTC


271100Z 2712/2818 VRB05KT 8000 BKN020 BKN060
TEMPO 2712/2802 RA
TEMPO 2802/2807 3000 BR
TEMPO 2808/2812 4000 TSRA
Pas de NOTAMs connus pour ce terrain.
1 SIGMET publié pour la FIR Milano (LIMM) :
 
Turbulence forte
LIMM SIGMET 4 VALID 271250/271650 LIIP
LIMM MILANO FIR SEV TURB FCST NE OF LINE N4612 E00859 - N4331 E01207 FL300/400 MOV E NC=



MET'MAP, la Météo Aéronautique d'un coup d'oeil ! - Copyright ORBIFLY Décembre 2007 - Disclaimer

ORBIFLY MET'MAP TEAM :

Programmation & Développement : Alexandra Zaïnal
Conception & Développement : Baudouin d'Aumeries
Co-Programmation & Développement : Marc-Olivier Méhu
Soutien technique & logistique : Manuel Goepfert

Contact : metmap@orbifly.com




SOURCES & CREDITS :

   NOAA